sensor_id;sensor_type;location;lat;lon;timestamp;pressure;altitude;pressure_sealevel;temperature
67353;BMP180;54238;52.278;21.056;2023-09-08T00:02:30;101478.80;;;19.40
67353;BMP180;54238;52.278;21.056;2023-09-08T00:04:57;101473.80;;;19.40
67353;BMP180;54238;52.278;21.056;2023-09-08T00:07:29;101474.40;;;19.38
67353;BMP180;54238;52.278;21.056;2023-09-08T00:10:00;101474.00;;;19.36
67353;BMP180;54238;52.278;21.056;2023-09-08T00:12:28;101469.80;;;19.30
67353;BMP180;54238;52.278;21.056;2023-09-08T00:14:57;101469.60;;;19.30
67353;BMP180;54238;52.278;21.056;2023-09-08T00:17:33;101470.40;;;19.22
67353;BMP180;54238;52.278;21.056;2023-09-08T00:20:08;101470.80;;;19.30
67353;BMP180;54238;52.278;21.056;2023-09-08T00:22:37;101471.00;;;19.30
67353;BMP180;54238;52.278;21.056;2023-09-08T00:25:11;101465.20;;;19.24
67353;BMP180;54238;52.278;21.056;2023-09-08T00:27:41;101466.20;;;19.22
67353;BMP180;54238;52.278;21.056;2023-09-08T00:30:13;101462.20;;;19.24
67353;BMP180;54238;52.278;21.056;2023-09-08T00:32:45;101464.00;;;19.22
67353;BMP180;54238;52.278;21.056;2023-09-08T00:35:13;101461.00;;;19.20
67353;BMP180;54238;52.278;21.056;2023-09-08T00:37:40;101463.60;;;19.20
67353;BMP180;54238;52.278;21.056;2023-09-08T00:40:12;101465.80;;;19.18
67353;BMP180;54238;52.278;21.056;2023-09-08T00:42:40;101468.00;;;19.20
67353;BMP180;54238;52.278;21.056;2023-09-08T00:45:09;101467.00;;;19.10
67353;BMP180;54238;52.278;21.056;2023-09-08T00:47:40;101471.40;;;19.10
67353;BMP180;54238;52.278;21.056;2023-09-08T00:50:11;101472.20;;;19.10
67353;BMP180;54238;52.278;21.056;2023-09-08T00:52:40;101474.00;;;19.10
67353;BMP180;54238;52.278;21.056;2023-09-08T00:55:08;101476.80;;;19.08
67353;BMP180;54238;52.278;21.056;2023-09-08T00:57:35;101471.00;;;19.04
67353;BMP180;54238;52.278;21.056;2023-09-08T01:00:04;101472.20;;;19.04
67353;BMP180;54238;52.278;21.056;2023-09-08T01:02:38;101468.80;;;19.06
67353;BMP180;54238;52.278;21.056;2023-09-08T01:05:09;101466.40;;;19.00
67353;BMP180;54238;52.278;21.056;2023-09-08T01:07:37;101466.80;;;19.00
67353;BMP180;54238;52.278;21.056;2023-09-08T01:10:07;101462.20;;;18.96
67353;BMP180;54238;52.278;21.056;2023-09-08T01:12:37;101465.40;;;18.90
67353;BMP180;54238;52.278;21.056;2023-09-08T01:15:05;101460.60;;;18.90
67353;BMP180;54238;52.278;21.056;2023-09-08T01:17:37;101463.60;;;19.00
67353;BMP180;54238;52.278;21.056;2023-09-08T01:20:15;101461.20;;;19.00
67353;BMP180;54238;52.278;21.056;2023-09-08T01:23:24;101459.40;;;18.92
67353;BMP180;54238;52.278;21.056;2023-09-08T01:26:20;101455.40;;;18.90
67353;BMP180;54238;52.278;21.056;2023-09-08T01:28:49;101448.40;;;18.90
67353;BMP180;54238;52.278;21.056;2023-09-08T01:31:22;101448.80;;;18.90
67353;BMP180;54238;52.278;21.056;2023-09-08T01:33:50;101452.20;;;18.90
67353;BMP180;54238;52.278;21.056;2023-09-08T01:36:20;101454.80;;;18.86
67353;BMP180;54238;52.278;21.056;2023-09-08T01:38:47;101447.20;;;18.80
67353;BMP180;54238;52.278;21.056;2023-09-08T01:41:17;101447.40;;;18.80
67353;BMP180;54238;52.278;21.056;2023-09-08T01:43:46;101446.40;;;18.80
67353;BMP180;54238;52.278;21.056;2023-09-08T01:46:16;101445.00;;;18.80
67353;BMP180;54238;52.278;21.056;2023-09-08T01:48:45;101446.40;;;18.80
67353;BMP180;54238;52.278;21.056;2023-09-08T01:51:14;101442.20;;;18.80
67353;BMP180;54238;52.278;21.056;2023-09-08T01:53:41;101438.00;;;18.80
67353;BMP180;54238;52.278;21.056;2023-09-08T01:56:08;101439.20;;;18.88
67353;BMP180;54238;52.278;21.056;2023-09-08T01:58:38;101436.40;;;18.90
67353;BMP180;54238;52.278;21.056;2023-09-08T02:01:07;101436.40;;;18.90
67353;BMP180;54238;52.278;21.056;2023-09-08T02:03:34;101430.80;;;18.90
67353;BMP180;54238;52.278;21.056;2023-09-08T02:06:06;101431.20;;;18.90
67353;BMP180;54238;52.278;21.056;2023-09-08T02:08:40;101428.40;;;18.90
67353;BMP180;54238;52.278;21.056;2023-09-08T02:11:07;101427.60;;;18.90
67353;BMP180;54238;52.278;21.056;2023-09-08T02:13:34;101428.20;;;18.90
67353;BMP180;54238;52.278;21.056;2023-09-08T02:16:06;101431.80;;;18.90
67353;BMP180;54238;52.278;21.056;2023-09-08T02:18:36;101433.20;;;18.82
67353;BMP180;54238;52.278;21.056;2023-09-08T02:21:05;101433.20;;;18.88
67353;BMP180;54238;52.278;21.056;2023-09-08T02:23:34;101432.80;;;18.90
67353;BMP180;54238;52.278;21.056;2023-09-08T02:26:04;101431.80;;;18.90
67353;BMP180;54238;52.278;21.056;2023-09-08T02:28:33;101429.60;;;18.82
67353;BMP180;54238;52.278;21.056;2023-09-08T02:31:07;101431.20;;;18.80
67353;BMP180;54238;52.278;21.056;2023-09-08T02:33:37;101430.40;;;18.80
67353;BMP180;54238;52.278;21.056;2023-09-08T02:36:09;101427.80;;;18.80
67353;BMP180;54238;52.278;21.056;2023-09-08T02:38:39;101424.60;;;18.80
67353;BMP180;54238;52.278;21.056;2023-09-08T02:41:06;101421.20;;;18.80
67353;BMP180;54238;52.278;21.056;2023-09-08T02:43:37;101417.60;;;18.80
67353;BMP180;54238;52.278;21.056;2023-09-08T02:46:04;101417.00;;;18.80
67353;BMP180;54238;52.278;21.056;2023-09-08T02:48:38;101414.20;;;18.80
67353;BMP180;54238;52.278;21.056;2023-09-08T02:51:05;101413.40;;;18.80
67353;BMP180;54238;52.278;21.056;2023-09-08T02:53:33;101410.40;;;18.78
67353;BMP180;54238;52.278;21.056;2023-09-08T02:56:03;101411.40;;;18.80
67353;BMP180;54238;52.278;21.056;2023-09-08T02:58:32;101407.40;;;18.80
67353;BMP180;54238;52.278;21.056;2023-09-08T03:01:14;101408.40;;;18.80
67353;BMP180;54238;52.278;21.056;2023-09-08T03:03:49;101408.40;;;18.78
67353;BMP180;54238;52.278;21.056;2023-09-08T03:06:23;101409.40;;;18.70
67353;BMP180;54238;52.278;21.056;2023-09-08T03:08:52;101408.00;;;18.70
67353;BMP180;54238;52.278;21.056;2023-09-08T03:11:23;101405.80;;;18.70
67353;BMP180;54238;52.278;21.056;2023-09-08T03:13:50;101401.20;;;18.70
67353;BMP180;54238;52.278;21.056;2023-09-08T03:16:21;101403.80;;;18.70
67353;BMP180;54238;52.278;21.056;2023-09-08T03:18:51;101395.60;;;18.70
67353;BMP180;54238;52.278;21.056;2023-09-08T03:21:20;101384.60;;;18.60
67353;BMP180;54238;52.278;21.056;2023-09-08T03:23:52;101382.60;;;18.60
67353;BMP180;54238;52.278;21.056;2023-09-08T03:26:22;101385.80;;;18.60
67353;BMP180;54238;52.278;21.056;2023-09-08T03:28:51;101387.60;;;18.50
67353;BMP180;54238;52.278;21.056;2023-09-08T03:31:23;101389.20;;;18.50
67353;BMP180;54238;52.278;21.056;2023-09-08T03:33:57;101388.40;;;18.50
67353;BMP180;54238;52.278;21.056;2023-09-08T03:36:25;101387.80;;;18.50
67353;BMP180;54238;52.278;21.056;2023-09-08T03:38:57;101391.00;;;18.50
67353;BMP180;54238;52.278;21.056;2023-09-08T03:41:27;101390.20;;;18.50
67353;BMP180;54238;52.278;21.056;2023-09-08T03:44:02;101390.60;;;18.50
67353;BMP180;54238;52.278;21.056;2023-09-08T03:46:31;101393.20;;;18.50
67353;BMP180;54238;52.278;21.056;2023-09-08T03:49:03;101394.80;;;18.50
67353;BMP180;54238;52.278;21.056;2023-09-08T03:51:33;101394.20;;;18.50
67353;BMP180;54238;52.278;21.056;2023-09-08T03:54:00;101397.00;;;18.50
67353;BMP180;54238;52.278;21.056;2023-09-08T03:56:32;101399.00;;;18.50
67353;BMP180;54238;52.278;21.056;2023-09-08T03:59:04;101395.00;;;18.50
67353;BMP180;54238;52.278;21.056;2023-09-08T04:01:35;101391.40;;;18.40
67353;BMP180;54238;52.278;21.056;2023-09-08T04:04:03;101393.60;;;18.40
67353;BMP180;54238;52.278;21.056;2023-09-08T04:06:30;101391.80;;;18.40
67353;BMP180;54238;52.278;21.056;2023-09-08T04:08:59;101391.00;;;18.40
67353;BMP180;54238;52.278;21.056;2023-09-08T04:11:33;101387.80;;;18.40
67353;BMP180;54238;52.278;21.056;2023-09-08T04:14:00;101384.80;;;18.40
67353;BMP180;54238;52.278;21.056;2023-09-08T04:16:32;101390.20;;;18.40
67353;BMP180;54238;52.278;21.056;2023-09-08T04:19:04;101389.60;;;18.40
67353;BMP180;54238;52.278;21.056;2023-09-08T04:21:31;101387.80;;;18.30
67353;BMP180;54238;52.278;21.056;2023-09-08T04:23:58;101389.00;;;18.30
67353;BMP180;54238;52.278;21.056;2023-09-08T04:26:29;101384.60;;;18.30
67353;BMP180;54238;52.278;21.056;2023-09-08T04:28:57;101378.60;;;18.30
67353;BMP180;54238;52.278;21.056;2023-09-08T04:31:24;101383.00;;;18.30
67353;BMP180;54238;52.278;21.056;2023-09-08T04:33:54;101382.00;;;18.30
67353;BMP180;54238;52.278;21.056;2023-09-08T04:36:21;101382.60;;;18.30
67353;BMP180;54238;52.278;21.056;2023-09-08T04:38:52;101385.20;;;18.30
67353;BMP180;54238;52.278;21.056;2023-09-08T04:41:22;101383.00;;;18.30
67353;BMP180;54238;52.278;21.056;2023-09-08T04:43:49;101386.20;;;18.30
67353;BMP180;54238;52.278;21.056;2023-09-08T04:46:18;101382.20;;;18.30
67353;BMP180;54238;52.278;21.056;2023-09-08T04:48:47;101383.40;;;18.30
67353;BMP180;54238;52.278;21.056;2023-09-08T04:51:14;101378.80;;;18.30
67353;BMP180;54238;52.278;21.056;2023-09-08T04:53:42;101379.00;;;18.30
67353;BMP180;54238;52.278;21.056;2023-09-08T04:56:13;101379.60;;;18.34
67353;BMP180;54238;52.278;21.056;2023-09-08T04:58:44;101378.80;;;18.34
67353;BMP180;54238;52.278;21.056;2023-09-08T05:01:18;101373.60;;;18.38
67353;BMP180;54238;52.278;21.056;2023-09-08T05:03:52;101378.00;;;18.40
67353;BMP180;54238;52.278;21.056;2023-09-08T05:06:19;101377.20;;;18.40
67353;BMP180;54238;52.278;21.056;2023-09-08T05:08:46;101374.40;;;18.40
67353;BMP180;54238;52.278;21.056;2023-09-08T05:11:16;101375.80;;;18.40
67353;BMP180;54238;52.278;21.056;2023-09-08T05:13:46;101378.60;;;18.50
67353;BMP180;54238;52.278;21.056;2023-09-08T05:16:16;101375.40;;;18.50
67353;BMP180;54238;52.278;21.056;2023-09-08T05:18:45;101374.00;;;18.50
67353;BMP180;54238;52.278;21.056;2023-09-08T05:21:17;101375.20;;;18.50
67353;BMP180;54238;52.278;21.056;2023-09-08T05:23:49;101370.80;;;18.50
67353;BMP180;54238;52.278;21.056;2023-09-08T05:26:23;101371.00;;;18.50
67353;BMP180;54238;52.278;21.056;2023-09-08T05:28:55;101373.60;;;18.50
67353;BMP180;54238;52.278;21.056;2023-09-08T05:31:25;101377.60;;;18.60
67353;BMP180;54238;52.278;21.056;2023-09-08T05:33:52;101373.20;;;18.60
67353;BMP180;54238;52.278;21.056;2023-09-08T05:36:24;101378.20;;;18.68
67353;BMP180;54238;52.278;21.056;2023-09-08T05:38:56;101373.40;;;18.70
67353;BMP180;54238;52.278;21.056;2023-09-08T05:41:25;101372.80;;;18.70
67353;BMP180;54238;52.278;21.056;2023-09-08T05:43:57;101373.20;;;18.80
67353;BMP180;54238;52.278;21.056;2023-09-08T05:46:29;101373.20;;;18.80
67353;BMP180;54238;52.278;21.056;2023-09-08T05:48:58;101373.40;;;18.80
67353;BMP180;54238;52.278;21.056;2023-09-08T05:51:28;101375.80;;;18.80
67353;BMP180;54238;52.278;21.056;2023-09-08T05:53:59;101382.40;;;18.88
67353;BMP180;54238;52.278;21.056;2023-09-08T05:56:33;101379.20;;;18.90
67353;BMP180;54238;52.278;21.056;2023-09-08T05:59:07;101381.20;;;18.90
67353;BMP180;54238;52.278;21.056;2023-09-08T06:01:34;101382.40;;;18.90
67353;BMP180;54238;52.278;21.056;2023-09-08T06:04:07;101382.60;;;18.94
67353;BMP180;54238;52.278;21.056;2023-09-08T06:06:37;101380.20;;;19.00
67353;BMP180;54238;52.278;21.056;2023-09-08T06:09:07;101378.60;;;19.00
67353;BMP180;54238;52.278;21.056;2023-09-08T06:11:36;101378.00;;;19.10
67353;BMP180;54238;52.278;21.056;2023-09-08T06:14:07;101378.80;;;19.10
67353;BMP180;54238;52.278;21.056;2023-09-08T06:16:35;101378.60;;;19.20
67353;BMP180;54238;52.278;21.056;2023-09-08T06:19:06;101376.40;;;19.20
67353;BMP180;54238;52.278;21.056;2023-09-08T06:21:36;101374.40;;;19.30
67353;BMP180;54238;52.278;21.056;2023-09-08T06:24:03;101376.00;;;19.36
67353;BMP180;54238;52.278;21.056;2023-09-08T06:26:37;101374.20;;;19.40
67353;BMP180;54238;52.278;21.056;2023-09-08T06:29:06;101369.00;;;19.42
67353;BMP180;54238;52.278;21.056;2023-09-08T06:31:35;101373.40;;;19.50
67353;BMP180;54238;52.278;21.056;2023-09-08T06:34:02;101372.20;;;19.60
67353;BMP180;54238;52.278;21.056;2023-09-08T06:36:30;101368.60;;;19.76
67353;BMP180;54238;52.278;21.056;2023-09-08T06:39:00;101367.40;;;19.90
67353;BMP180;54238;52.278;21.056;2023-09-08T06:41:30;101370.40;;;20.00
67353;BMP180;54238;52.278;21.056;2023-09-08T06:44:02;101371.60;;;20.10
67353;BMP180;54238;52.278;21.056;2023-09-08T06:46:31;101367.40;;;20.20
67353;BMP180;54238;52.278;21.056;2023-09-08T06:49:00;101366.60;;;20.30
67353;BMP180;54238;52.278;21.056;2023-09-08T06:51:32;101368.20;;;20.40
67353;BMP180;54238;52.278;21.056;2023-09-08T06:54:01;101370.20;;;20.50
67353;BMP180;54238;52.278;21.056;2023-09-08T06:56:35;101367.00;;;20.60
67353;BMP180;54238;52.278;21.056;2023-09-08T06:59:01;101371.60;;;20.70
67353;BMP180;54238;52.278;21.056;2023-09-08T07:01:32;101372.80;;;20.80
67353;BMP180;54238;52.278;21.056;2023-09-08T07:04:01;101369.20;;;20.90
67353;BMP180;54238;52.278;21.056;2023-09-08T07:06:35;101373.00;;;21.00
67353;BMP180;54238;52.278;21.056;2023-09-08T07:09:08;101367.00;;;21.14
67353;BMP180;54238;52.278;21.056;2023-09-08T07:11:40;101368.60;;;21.30
67353;BMP180;54238;52.278;21.056;2023-09-08T07:14:07;101365.40;;;21.38
67353;BMP180;54238;52.278;21.056;2023-09-08T07:16:36;101364.80;;;21.50
67353;BMP180;54238;52.278;21.056;2023-09-08T07:19:04;101365.60;;;21.60
67353;BMP180;54238;52.278;21.056;2023-09-08T07:21:36;101361.60;;;21.70
67353;BMP180;54238;52.278;21.056;2023-09-08T07:24:05;101361.00;;;21.82
67353;BMP180;54238;52.278;21.056;2023-09-08T07:26:37;101367.00;;;22.00
67353;BMP180;54238;52.278;21.056;2023-09-08T07:29:04;101365.20;;;22.10
67353;BMP180;54238;52.278;21.056;2023-09-08T07:31:31;101368.80;;;22.14
67353;BMP180;54238;52.278;21.056;2023-09-08T07:33:58;101363.80;;;22.20
67353;BMP180;54238;52.278;21.056;2023-09-08T07:36:30;101367.20;;;22.22
67353;BMP180;54238;52.278;21.056;2023-09-08T07:39:00;101368.20;;;22.30
67353;BMP180;54238;52.278;21.056;2023-09-08T07:41:29;101369.20;;;22.40
67353;BMP180;54238;52.278;21.056;2023-09-08T07:43:56;101374.20;;;22.60
67353;BMP180;54238;52.278;21.056;2023-09-08T07:46:23;101371.40;;;22.70
67353;BMP180;54238;52.278;21.056;2023-09-08T07:48:50;101370.60;;;22.90
67353;BMP180;54238;52.278;21.056;2023-09-08T07:51:19;101371.60;;;23.08
67353;BMP180;54238;52.278;21.056;2023-09-08T07:53:52;101368.60;;;23.20
67353;BMP180;54238;52.278;21.056;2023-09-08T07:56:22;101369.00;;;23.30
67353;BMP180;54238;52.278;21.056;2023-09-08T07:58:49;101367.80;;;23.50
67353;BMP180;54238;52.278;21.056;2023-09-08T08:01:19;101368.60;;;23.60
67353;BMP180;54238;52.278;21.056;2023-09-08T08:03:49;101369.40;;;23.80
67353;BMP180;54238;52.278;21.056;2023-09-08T08:06:19;101368.00;;;23.90
67353;BMP180;54238;52.278;21.056;2023-09-08T08:08:46;101364.80;;;24.10
67353;BMP180;54238;52.278;21.056;2023-09-08T08:11:21;101364.20;;;24.20
67353;BMP180;54238;52.278;21.056;2023-09-08T08:13:49;101366.80;;;24.30
67353;BMP180;54238;52.278;21.056;2023-09-08T08:16:19;101364.40;;;24.50
67353;BMP180;54238;52.278;21.056;2023-09-08T08:18:51;101364.00;;;24.60
67353;BMP180;54238;52.278;21.056;2023-09-08T08:21:18;101361.20;;;24.76
67353;BMP180;54238;52.278;21.056;2023-09-08T08:23:52;101363.60;;;24.90
67353;BMP180;54238;52.278;21.056;2023-09-08T08:26:19;101369.00;;;25.10
67353;BMP180;54238;52.278;21.056;2023-09-08T08:28:49;101368.60;;;25.30
67353;BMP180;54238;52.278;21.056;2023-09-08T08:31:18;101374.00;;;25.60
67353;BMP180;54238;52.278;21.056;2023-09-08T08:33:50;101373.20;;;25.84
67353;BMP180;54238;52.278;21.056;2023-09-08T08:36:19;101373.20;;;26.10
67353;BMP180;54238;52.278;21.056;2023-09-08T08:38:49;101370.20;;;26.30
67353;BMP180;54238;52.278;21.056;2023-09-08T08:41:21;101367.80;;;26.44
67353;BMP180;54238;52.278;21.056;2023-09-08T08:43:49;101371.60;;;26.60
67353;BMP180;54238;52.278;21.056;2023-09-08T08:46:19;101373.40;;;26.80
67353;BMP180;54238;52.278;21.056;2023-09-08T08:48:51;101367.20;;;27.00
67353;BMP180;54238;52.278;21.056;2023-09-08T08:51:25;101370.00;;;27.20
67353;BMP180;54238;52.278;21.056;2023-09-08T08:53:53;101364.00;;;27.40
67353;BMP180;54238;52.278;21.056;2023-09-08T08:56:20;101363.40;;;27.54
67353;BMP180;54238;52.278;21.056;2023-09-08T08:58:58;101365.00;;;27.70
67353;BMP180;54238;52.278;21.056;2023-09-08T09:01:28;101360.00;;;27.96
67353;BMP180;54238;52.278;21.056;2023-09-08T09:03:58;101362.40;;;28.20
67353;BMP180;54238;52.278;21.056;2023-09-08T09:06:29;101360.00;;;28.40
67353;BMP180;54238;52.278;21.056;2023-09-08T09:08:57;101357.60;;;28.50
67353;BMP180;54238;52.278;21.056;2023-09-08T09:11:25;101358.80;;;28.60
67353;BMP180;54238;52.278;21.056;2023-09-08T09:13:52;101352.80;;;28.60
67353;BMP180;54238;52.278;21.056;2023-09-08T09:16:21;101349.80;;;28.60
67353;BMP180;54238;52.278;21.056;2023-09-08T09:18:59;101349.60;;;28.80
67353;BMP180;54238;52.278;21.056;2023-09-08T09:21:45;101344.20;;;29.10
67353;BMP180;54238;52.278;21.056;2023-09-08T09:24:29;101341.60;;;29.48
67353;BMP180;54238;52.278;21.056;2023-09-08T09:26:57;101341.60;;;29.70
67353;BMP180;54238;52.278;21.056;2023-09-08T09:29:28;101340.40;;;30.00
67353;BMP180;54238;52.278;21.056;2023-09-08T09:32:08;101337.40;;;30.30
67353;BMP180;54238;52.278;21.056;2023-09-08T09:34:56;101338.00;;;30.50
67353;BMP180;54238;52.278;21.056;2023-09-08T09:37:23;101336.80;;;30.54
67353;BMP180;54238;52.278;21.056;2023-09-08T09:39:54;101338.40;;;30.80
67353;BMP180;54238;52.278;21.056;2023-09-08T09:42:21;101334.80;;;31.00
67353;BMP180;54238;52.278;21.056;2023-09-08T09:44:53;101331.80;;;31.32
67353;BMP180;54238;52.278;21.056;2023-09-08T09:47:22;101334.80;;;31.66
67353;BMP180;54238;52.278;21.056;2023-09-08T09:49:49;101334.80;;;31.90
67353;BMP180;54238;52.278;21.056;2023-09-08T09:52:24;101330.40;;;32.16
67353;BMP180;54238;52.278;21.056;2023-09-08T09:54:53;101328.40;;;32.60
67353;BMP180;54238;52.278;21.056;2023-09-08T09:57:22;101325.80;;;32.70
67353;BMP180;54238;52.278;21.056;2023-09-08T09:59:54;101327.60;;;32.78
67353;BMP180;54238;52.278;21.056;2023-09-08T10:02:25;101323.40;;;32.68
67353;BMP180;54238;52.278;21.056;2023-09-08T10:05:11;101323.80;;;32.80
67353;BMP180;54238;52.278;21.056;2023-09-08T10:07:42;101322.40;;;33.08
67353;BMP180;54238;52.278;21.056;2023-09-08T10:10:10;101320.00;;;33.30
67353;BMP180;54238;52.278;21.056;2023-09-08T10:12:38;101320.40;;;33.52
67353;BMP180;54238;52.278;21.056;2023-09-08T10:15:09;101320.80;;;33.70
67353;BMP180;54238;52.278;21.056;2023-09-08T10:17:41;101326.60;;;33.50
67353;BMP180;54238;52.278;21.056;2023-09-08T10:20:10;101322.40;;;33.20
67353;BMP180;54238;52.278;21.056;2023-09-08T10:22:42;101322.20;;;32.80
67353;BMP180;54238;52.278;21.056;2023-09-08T10:25:12;101322.00;;;32.40
67353;BMP180;54238;52.278;21.056;2023-09-08T10:27:49;101318.20;;;32.10
67353;BMP180;54238;52.278;21.056;2023-09-08T10:30:22;101310.80;;;32.00
67353;BMP180;54238;52.278;21.056;2023-09-08T10:32:57;101311.60;;;32.46
67353;BMP180;54238;52.278;21.056;2023-09-08T10:35:28;101306.60;;;32.80
67353;BMP180;54238;52.278;21.056;2023-09-08T10:38:26;101310.00;;;33.10
67353;BMP180;54238;52.278;21.056;2023-09-08T10:43:55;101305.20;;;34.12
67353;BMP180;54238;52.278;21.056;2023-09-08T10:46:30;101306.00;;;34.56
67353;BMP180;54238;52.278;21.056;2023-09-08T10:49:07;101307.60;;;34.98
67353;BMP180;54238;52.278;21.056;2023-09-08T10:51:34;101300.60;;;35.36
67353;BMP180;54238;52.278;21.056;2023-09-08T10:54:02;101296.60;;;35.62
67353;BMP180;54238;52.278;21.056;2023-09-08T10:56:57;101294.00;;;35.84
67353;BMP180;54238;52.278;21.056;2023-09-08T10:59:29;101296.80;;;36.24
67353;BMP180;54238;52.278;21.056;2023-09-08T11:02:03;101285.40;;;36.40
67353;BMP180;54238;52.278;21.056;2023-09-08T11:04:34;101285.40;;;36.30
67353;BMP180;54238;52.278;21.056;2023-09-08T11:07:06;101286.60;;;36.30
67353;BMP180;54238;52.278;21.056;2023-09-08T11:09:36;101281.20;;;36.10
67353;BMP180;54238;52.278;21.056;2023-09-08T11:12:08;101280.20;;;36.00
67353;BMP180;54238;52.278;21.056;2023-09-08T11:14:37;101279.20;;;36.20
67353;BMP180;54238;52.278;21.056;2023-09-08T11:17:04;101283.00;;;36.50
67353;BMP180;54238;52.278;21.056;2023-09-08T11:19:52;101282.00;;;36.60
67353;BMP180;54238;52.278;21.056;2023-09-08T11:22:23;101279.60;;;36.80
67353;BMP180;54238;52.278;21.056;2023-09-08T11:24:58;101279.20;;;37.04
67353;BMP180;54238;52.278;21.056;2023-09-08T11:27:27;101281.20;;;37.20
67353;BMP180;54238;52.278;21.056;2023-09-08T11:29:58;101274.40;;;37.20
67353;BMP180;54238;52.278;21.056;2023-09-08T11:32:35;101278.60;;;37.46
67353;BMP180;54238;52.278;21.056;2023-09-08T11:35:13;101278.60;;;37.76
67353;BMP180;54238;52.278;21.056;2023-09-08T11:37:45;101277.80;;;38.14
67353;BMP180;54238;52.278;21.056;2023-09-08T11:40:13;101276.40;;;38.30
67353;BMP180;54238;52.278;21.056;2023-09-08T11:42:43;101277.80;;;38.30
67353;BMP180;54238;52.278;21.056;2023-09-08T11:45:17;101271.00;;;38.40
67353;BMP180;54238;52.278;21.056;2023-09-08T11:47:52;101271.60;;;38.70
67353;BMP180;54238;52.278;21.056;2023-09-08T11:50:22;101269.80;;;39.00
67353;BMP180;54238;52.278;21.056;2023-09-08T11:52:56;101269.80;;;39.10
67353;BMP180;54238;52.278;21.056;2023-09-08T11:55:25;101266.80;;;39.14
67353;BMP180;54238;52.278;21.056;2023-09-08T11:57:57;101269.60;;;39.30
67353;BMP180;54238;52.278;21.056;2023-09-08T12:00:29;101266.80;;;39.50
67353;BMP180;54238;52.278;21.056;2023-09-08T12:03:12;101265.20;;;39.80
67353;BMP180;54238;52.278;21.056;2023-09-08T12:05:45;101265.80;;;39.90
67353;BMP180;54238;52.278;21.056;2023-09-08T12:08:25;101263.60;;;40.10
67353;BMP180;54238;52.278;21.056;2023-09-08T12:10:57;101258.80;;;40.30
67353;BMP180;54238;52.278;21.056;2023-09-08T12:13:29;101259.00;;;40.40
67353;BMP180;54238;52.278;21.056;2023-09-08T12:15:58;101254.80;;;40.30
67353;BMP180;54238;52.278;21.056;2023-09-08T12:18:40;101255.80;;;40.16
67353;BMP180;54238;52.278;21.056;2023-09-08T12:21:07;101262.20;;;39.96
67353;BMP180;54238;52.278;21.056;2023-09-08T12:23:51;101255.80;;;39.16
67353;BMP180;54238;52.278;21.056;2023-09-08T12:26:26;101255.80;;;38.54
67353;BMP180;54238;52.278;21.056;2023-09-08T12:28:53;101257.00;;;37.88
67353;BMP180;54238;52.278;21.056;2023-09-08T12:31:20;101256.80;;;37.20
67353;BMP180;54238;52.278;21.056;2023-09-08T12:33:54;101247.40;;;36.50
67353;BMP180;54238;52.278;21.056;2023-09-08T12:36:21;101249.40;;;36.02
67353;BMP180;54238;52.278;21.056;2023-09-08T12:38:51;101240.20;;;35.86
67353;BMP180;54238;52.278;21.056;2023-09-08T12:41:25;101238.20;;;36.08
67353;BMP180;54238;52.278;21.056;2023-09-08T12:43:52;101237.80;;;36.50
67353;BMP180;54238;52.278;21.056;2023-09-08T12:46:22;101235.20;;;36.42
67353;BMP180;54238;52.278;21.056;2023-09-08T12:48:49;101230.00;;;36.30
67353;BMP180;54238;52.278;21.056;2023-09-08T12:51:23;101231.20;;;36.00
67353;BMP180;54238;52.278;21.056;2023-09-08T12:53:50;101229.20;;;35.62
67353;BMP180;54238;52.278;21.056;2023-09-08T12:56:20;101226.00;;;35.58
67353;BMP180;54238;52.278;21.056;2023-09-08T12:58:47;101222.00;;;35.40
67353;BMP180;54238;52.278;21.056;2023-09-08T13:01:16;101219.40;;;35.60
67353;BMP180;54238;52.278;21.056;2023-09-08T13:03:43;101214.80;;;35.96
67353;BMP180;54238;52.278;21.056;2023-09-08T13:06:15;101209.20;;;36.44
67353;BMP180;54238;52.278;21.056;2023-09-08T13:08:42;101208.20;;;36.96
67353;BMP180;54238;52.278;21.056;2023-09-08T13:11:12;101207.80;;;37.44
67353;BMP180;54238;52.278;21.056;2023-09-08T13:13:40;101205.40;;;37.90
67353;BMP180;54238;52.278;21.056;2023-09-08T13:16:12;101204.00;;;38.34
67353;BMP180;54238;52.278;21.056;2023-09-08T13:18:42;101200.00;;;38.60
67353;BMP180;54238;52.278;21.056;2023-09-08T13:21:12;101201.00;;;38.78
67353;BMP180;54238;52.278;21.056;2023-09-08T13:23:41;101201.60;;;39.00
67353;BMP180;54238;52.278;21.056;2023-09-08T13:26:11;101194.60;;;39.20
67353;BMP180;54238;52.278;21.056;2023-09-08T13:28:40;101195.60;;;39.40
67353;BMP180;54238;52.278;21.056;2023-09-08T13:31:09;101192.80;;;39.68
67353;BMP180;54238;52.278;21.056;2023-09-08T13:33:41;101192.60;;;39.88
67353;BMP180;54238;52.278;21.056;2023-09-08T13:36:12;101187.00;;;40.10
67353;BMP180;54238;52.278;21.056;2023-09-08T13:38:42;101181.60;;;40.36
67353;BMP180;54238;52.278;21.056;2023-09-08T13:41:14;101181.60;;;40.48
67353;BMP180;54238;52.278;21.056;2023-09-08T13:43:40;101179.60;;;40.50
67353;BMP180;54238;52.278;21.056;2023-09-08T13:46:10;101176.80;;;40.60
67353;BMP180;54238;52.278;21.056;2023-09-08T13:48:37;101174.60;;;40.70
67353;BMP180;54238;52.278;21.056;2023-09-08T13:51:09;101174.60;;;40.76
67353;BMP180;54238;52.278;21.056;2023-09-08T13:53:38;101174.00;;;40.70
67353;BMP180;54238;52.278;21.056;2023-09-08T13:56:07;101171.00;;;40.70
67353;BMP180;54238;52.278;21.056;2023-09-08T13:58:36;101172.40;;;40.78
67353;BMP180;54238;52.278;21.056;2023-09-08T14:01:05;101171.60;;;40.70
67353;BMP180;54238;52.278;21.056;2023-09-08T14:03:32;101168.00;;;40.60
67353;BMP180;54238;52.278;21.056;2023-09-08T14:06:02;101169.80;;;40.40
67353;BMP180;54238;52.278;21.056;2023-09-08T14:08:30;101163.60;;;40.36